Aviation Digital Data Service (ADDS)

Output produced by METARs form (1740 UTC 22 August 2014)
found at http://www.aviationweather.gov/adds/metars/
 
KCMI 221548Z 2216/2312 21007KT P6SM VCTS SCT035CB BKN120 
     TEMPO 2216/2218 4SM TSRA BR BKN035CB 
     FM221800 21008KT P6SM SCT035 BKN120 
     FM230200 24003KT P6SM BKN150